Time;durP1;ratioP1;P1;durP2;ratioP2;P2;SDS_P1;SDS_P2;PMS_P1;PMS_P2;Temp;Humidity;BMP_temperature;BMP_pressure;BME280_temperature;BME280_humidity;BME280_pressure;Samples;Min_cycle;Max_cycle;Signal;HPM_P1;HPM_P2
2022/10/26 00:02:08;;;;;;;1.10;0.50;;;;;;;18.89;65.86;96566.63;10565970;28;20032;-30
2022/10/26 00:07:09;;;;;;;0.45;0.40;;;;;;;18.85;65.50;96564.97;10564985;28;20547;-33
2022/10/26 00:12:09;;;;;;;0.80;0.50;;;;;;;18.84;65.25;96583.56;10564191;28;20036;-30
2022/10/26 00:17:09;;;;;;;1.50;0.60;;;;;;;18.84;65.27;96589.47;10565859;28;20448;-30
2022/10/26 00:22:10;;;;;;;1.43;0.30;;;;;;;18.81;65.37;96588.63;10562322;28;20301;-30
2022/10/26 00:27:10;;;;;;;0.70;0.37;;;;;;;18.81;65.28;96593.72;10559336;28;20039;-30
2022/10/26 00:32:11;;;;;;;1.00;0.30;;;;;;;18.82;65.52;96587.81;10566441;28;20028;-30
2022/10/26 00:37:11;;;;;;;1.37;0.50;;;;;;;18.81;64.76;96583.56;10562768;28;20297;-29
2022/10/26 00:42:16;;;;;;;0.60;0.40;;;;;;;18.82;65.01;96585.28;10560495;28;20425;-29
2022/10/26 00:47:30;;;;;;;3.22;0.50;;;;;;;18.81;65.26;96581.03;10568348;28;20051;-29
2022/10/26 00:52:30;;;;;;;4.18;0.73;;;;;;;18.81;65.26;96573.41;10562798;28;20106;-29
2022/10/26 00:57:31;;;;;;;0.65;0.30;;;;;;;18.81;65.32;96568.34;10562071;28;20138;-30
2022/10/26 01:02:31;;;;;;;2.53;0.88;;;;;;;18.84;66.10;96578.50;10566182;28;20031;-30
2022/10/26 01:07:33;;;;;;;0.95;0.55;;;;;;;18.89;65.74;96597.06;10558091;28;20428;-30
2022/10/26 01:12:33;;;;;;;1.15;0.88;;;;;;;18.85;65.58;96605.56;10560552;28;20180;-29
2022/10/26 01:17:39;;;;;;;1.17;0.45;;;;;;;18.83;65.23;96602.19;10562298;28;20036;-30
2022/10/26 01:22:52;;;;;;;2.13;0.50;;;;;;;18.81;65.29;96606.38;10566698;28;20105;-29
2022/10/26 01:27:53;;;;;;;1.00;0.30;;;;;;;18.78;65.48;96604.72;10552221;28;20387;-30
2022/10/26 01:33:22;;;;;;;0.60;0.30;;;;;;;18.82;65.33;96623.31;10564964;28;20028;-28
2022/10/26 01:38:31;;;;;;;1.05;0.40;;;;;;;18.81;65.57;96631.75;10554694;28;20032;-31
2022/10/26 01:43:35;;;;;;;0.22;0.22;;;;;;;18.80;65.50;96642.75;10558554;28;20036;-31
2022/10/26 01:48:36;;;;;;;0.68;0.40;;;;;;;18.75;65.40;96665.59;10560892;28;20496;-30
2022/10/26 01:53:44;;;;;;;0.60;0.40;;;;;;;18.79;65.20;96659.69;10559684;28;20039;-29
2022/10/26 01:58:48;;;;;;;1.05;0.60;;;;;;;18.82;65.74;96701.97;10555809;28;20036;-30
2022/10/26 02:03:56;;;;;;;0.93;0.40;;;;;;;18.81;65.69;96702.78;10560555;28;20031;-29
2022/10/26 02:09:11;;;;;;;0.85;0.40;;;;;;;18.86;66.20;96718.84;10551507;28;20604;-29
2022/10/26 02:14:18;;;;;;;0.50;0.40;;;;;;;18.87;66.03;96733.22;10555955;28;20088;-30
2022/10/26 02:19:32;;;;;;;3.40;0.30;;;;;;;18.86;65.21;96750.16;10556777;28;20074;-29
2022/10/26 02:24:36;;;;;;;1.80;0.45;;;;;;;18.79;65.20;96702.81;10562635;28;20080;-31
2022/10/26 02:29:38;;;;;;;1.25;0.40;;;;;;;18.80;65.33;96724.78;10552163;28;20470;-30
2022/10/26 02:34:43;;;;;;;1.20;0.68;;;;;;;18.81;65.39;96702.78;10561815;28;20031;-29
2022/10/26 02:39:47;;;;;;;0.77;0.55;;;;;;;18.82;65.74;96719.72;10556705;28;20035;-30
2022/10/26 02:44:52;;;;;;;1.88;0.30;;;;;;;18.78;65.48;96695.19;10552744;28;20077;-30
2022/10/26 02:49:53;;;;;;;2.28;0.80;;;;;;;18.80;65.70;96693.47;10558092;28;20032;-30
2022/10/26 02:55:13;;;;;;;0.60;0.52;;;;;;;18.80;65.41;96668.13;10550274;28;20052;-30
2022/10/26 03:00:16;;;;;;;1.10;0.20;;;;;;;18.69;65.13;96642.81;10561260;28;20028;-29
2022/10/26 03:05:25;;;;;;;0.75;0.40;;;;;;;18.80;65.23;96652.91;10555135;28;20032;-32
2022/10/26 03:10:26;;;;;;;1.58;0.32;;;;;;;18.80;65.65;96680.78;10555015;28;20031;-29
2022/10/26 03:15:26;;;;;;;0.32;0.20;;;;;;;18.81;65.98;96695.16;10555159;28;20050;-30
2022/10/26 03:20:27;;;;;;;0.50;0.33;;;;;;;18.87;65.76;96705.31;10549268;28;20631;-30
2022/10/26 03:25:27;;;;;;;0.50;0.33;;;;;;;18.83;65.22;96691.78;10560177;28;20284;-30
2022/10/26 03:30:29;;;;;;;0.60;0.40;;;;;;;18.82;65.37;96686.75;10550228;28;20032;-29
2022/10/26 03:35:29;;;;;;;1.08;0.40;;;;;;;18.80;65.34;96684.19;10554464;28;20040;-30
2022/10/26 03:40:30;;;;;;;1.83;0.80;;;;;;;18.80;65.70;96685.88;10563837;28;20135;-30
2022/10/26 03:45:30;;;;;;;0.40;0.20;;;;;;;18.80;65.48;96681.66;10561413;28;20027;-29
2022/10/26 03:50:30;;;;;;;0.73;0.30;;;;;;;18.78;65.26;96679.97;10562125;28;20031;-30
2022/10/26 03:55:31;;;;;;;0.80;0.60;;;;;;;18.78;65.47;96678.28;10562916;28;20024;-29
2022/10/26 04:00:31;;;;;;;3.83;0.53;;;;;;;18.78;65.62;96670.69;10563567;28;20274;-29
2022/10/26 04:05:32;;;;;;;0.53;0.30;;;;;;;18.79;65.62;96656.28;10566684;28;20039;-29
2022/10/26 04:10:32;;;;;;;1.37;0.47;;;;;;;18.78;65.63;96659.69;10566681;28;20077;-31
2022/10/26 04:15:32;;;;;;;0.63;0.37;;;;;;;18.78;65.73;96652.94;10556511;28;21201;-29
2022/10/26 04:20:35;;;;;;;1.37;0.50;;;;;;;18.82;66.35;96656.31;10564394;28;20039;-29
2022/10/26 04:25:36;;;;;;;0.75;0.30;;;;;;;18.85;65.97;96659.63;10561496;28;20463;-29
2022/10/26 04:30:36;;;;;;;0.35;0.30;;;;;;;18.86;65.97;96652.91;10555315;28;20016;-30
2022/10/26 04:35:37;;;;;;;0.52;0.40;;;;;;;18.81;65.41;96657.13;10564218;28;20036;-30
2022/10/26 04:40:37;;;;;;;0.80;0.50;;;;;;;18.81;65.17;96674.88;10557200;28;20036;-30
2022/10/26 04:45:38;;;;;;;1.23;0.40;;;;;;;18.79;65.43;96681.66;10561092;28;20292;-30
2022/10/26 04:50:39;;;;;;;0.93;0.50;;;;;;;18.76;65.62;96691.81;10558153;28;20281;-29
2022/10/26 04:55:39;;;;;;;4.05;1.98;;;;;;;18.76;65.19;96696.88;10563939;28;20027;-30
2022/10/26 05:00:40;;;;;;;0.40;0.30;;;;;;;18.75;65.23;96700.28;10560963;28;20024;-31
2022/10/26 05:05:40;;;;;;;12.80;3.40;;;;;;;18.72;66.04;96705.31;10554334;28;20024;-30
2022/10/26 05:10:41;;;;;;;1.58;0.93;;;;;;;18.74;65.71;96698.59;10559501;28;20026;-31
2022/10/26 05:15:42;;;;;;;2.15;1.00;;;;;;;18.66;65.23;96695.22;10556908;28;20062;-31
2022/10/26 05:20:42;;;;;;;10.33;2.60;;;;;;;18.73;66.32;96692.66;10555849;28;20054;-29
2022/10/26 05:25:43;;;;;;;5.23;1.63;;;;;;;18.85;66.38;96709.56;10555940;28;20316;-31
2022/10/26 05:30:45;;;;;;;14.10;1.95;;;;;;;18.89;66.41;96709.53;10564341;28;20023;-28
2022/10/26 05:35:45;;;;;;;15.38;2.17;;;;;;;18.71;65.61;96708.72;10562557;28;20032;-31
2022/10/26 05:40:53;;;;;;;8.60;1.45;;;;;;;18.77;65.68;96716.31;10553817;28;20489;-31
2022/10/26 05:45:53;;;;;;;10.45;2.72;;;;;;;18.78;66.13;96720.53;10561188;28;20106;-30
2022/10/26 05:50:58;;;;;;;6.30;1.77;;;;;;;18.79;66.16;96727.31;10551370;28;20435;-29
2022/10/26 05:55:58;;;;;;;6.25;1.95;;;;;;;18.79;66.19;96737.44;10563579;28;20032;-30
2022/10/26 06:01:23;;;;;;;6.60;1.75;;;;;;;18.78;66.13;96733.22;10559911;28;20036;-30
2022/10/26 06:06:23;;;;;;;5.03;1.40;;;;;;;18.72;66.16;96733.22;10554192;28;20264;-30
2022/10/26 06:11:24;;;;;;;10.52;1.90;;;;;;;18.78;66.21;96749.31;10560269;28;20048;-29
2022/10/26 06:17:04;;;;;;;9.05;1.58;;;;;;;18.77;65.90;96759.44;10557469;28;20036;-30
2022/10/26 06:22:23;;;;;;;6.13;1.17;;;;;;;18.69;66.15;96753.53;10526481;28;20047;-31
2022/10/26 06:27:51;;;;;;;5.43;2.08;;;;;;;18.79;67.26;96763.66;10551609;28;20039;-29
2022/10/26 06:32:54;;;;;;;5.95;1.40;;;;;;;18.81;66.75;96771.25;10561206;28;20031;-29
2022/10/26 06:37:58;;;;;;;3.35;1.23;;;;;;;18.81;66.10;96778.88;10553412;28;20054;-30
2022/10/26 06:42:59;;;;;;;4.82;1.20;;;;;;;18.79;65.79;96793.25;10554052;28;20045;-30
2022/10/26 06:48:08;;;;;;;4.93;1.38;;;;;;;18.77;65.68;96795.78;10558231;28;20034;-31
2022/10/26 06:53:14;;;;;;;2.92;1.20;;;;;;;18.78;65.90;96810.19;10557830;28;20024;-31
2022/10/26 06:58:17;;;;;;;7.30;1.13;;;;;;;18.77;65.97;96818.59;10560139;28;20032;-30
2022/10/26 07:03:18;;;;;;;5.38;1.10;;;;;;;18.78;66.12;96816.94;10556802;28;20092;-30
2022/10/26 07:08:18;;;;;;;4.93;0.88;;;;;;;18.76;66.05;96809.31;10555858;28;20354;-29
2022/10/26 07:13:19;;;;;;;3.65;1.02;;;;;;;18.77;66.15;96827.91;10562020;28;20598;-30
2022/10/26 07:18:19;;;;;;;3.97;1.13;;;;;;;18.74;65.88;96827.94;10563333;28;20050;-31
2022/10/26 07:23:21;;;;;;;3.10;0.85;;;;;;;18.76;66.07;96849.88;10561146;28;20479;-30
2022/10/26 07:28:22;;;;;;;1.55;1.05;;;;;;;18.76;65.92;96844.00;10561469;28;20082;-30
2022/10/26 07:33:22;;;;;;;3.27;1.40;;;;;;;18.72;66.96;96853.28;10571553;28;20036;-30
2022/10/26 07:38:23;;;;;;;1.97;1.10;;;;;;;18.82;66.92;96876.97;10563111;28;20051;-31
2022/10/26 07:43:23;;;;;;;3.93;0.93;;;;;;;18.82;66.05;96874.44;10564318;28;20040;-30
2022/10/26 07:48:23;;;;;;;3.47;1.10;;;;;;;18.79;65.73;96880.34;10566968;28;20032;-31
2022/10/26 07:53:24;;;;;;;4.40;0.93;;;;;;;18.78;65.82;96886.28;10568384;28;20746;-29
2022/10/26 07:58:26;;;;;;;2.53;1.00;;;;;;;18.77;65.92;96896.41;10566049;28;20405;-30
2022/10/26 08:03:26;;;;;;;1.90;1.20;;;;;;;18.75;65.59;96898.09;10565786;28;20044;-30
2022/10/26 08:08:26;;;;;;;3.20;1.23;;;;;;;18.77;66.19;96911.63;10559441;28;20546;-29
2022/10/26 08:13:27;;;;;;;1.60;0.77;;;;;;;18.77;66.32;96916.69;10564493;28;20032;-30
2022/10/26 08:18:27;;;;;;;1.70;0.93;;;;;;;18.75;66.00;96923.47;10561537;28;20027;-30
2022/10/26 08:23:28;;;;;;;2.90;1.10;;;;;;;18.75;66.12;96923.47;10564263;28;20107;-30
2022/10/26 08:28:29;;;;;;;3.43;1.20;;;;;;;18.74;66.22;96922.59;10556980;28;20027;-30
2022/10/26 08:33:29;;;;;;;2.33;0.80;;;;;;;18.74;66.24;96931.91;10565915;28;20115;-30
2022/10/26 08:38:29;;;;;;;2.20;1.10;;;;;;;18.78;66.75;96933.59;10561550;28;20028;-30
2022/10/26 08:43:57;;;;;;;1.30;0.90;;;;;;;18.82;66.74;96945.47;10560648;28;20286;-29
2022/10/26 08:49:18;;;;;;;3.85;0.90;;;;;;;18.81;65.95;96941.22;10558312;28;20281;-30
2022/10/26 08:54:36;;;;;;;1.23;0.70;;;;;;;18.78;65.70;96953.91;10558530;28;20042;-30
2022/10/26 08:59:43;;;;;;;3.33;1.75;;;;;;;18.76;66.06;96947.97;10563068;28;20024;-30
2022/10/26 09:04:43;;;;;;;1.38;0.70;;;;;;;18.74;66.06;96942.88;10550642;28;20035;-30
2022/10/26 09:09:52;;;;;;;2.85;0.73;;;;;;;18.76;66.16;96950.50;10556266;28;20379;-29
2022/10/26 09:15:04;;;;;;;1.40;0.60;;;;;;;18.75;66.02;96958.97;10556067;28;20046;-30
2022/10/26 09:20:29;;;;;;;1.17;0.55;;;;;;;18.75;66.15;96952.19;10564989;28;20084;-30
2022/10/26 09:25:40;;;;;;;1.40;0.88;;;;;;;18.76;66.16;96958.13;10560434;28;20055;-30
2022/10/26 09:30:43;;;;;;;0.98;0.57;;;;;;;18.76;66.23;96971.63;10554916;28;20119;-30
2022/10/26 09:35:56;;;;;;;1.20;0.80;;;;;;;18.74;66.18;96964.88;10554440;28;20235;-30
2022/10/26 09:41:13;;;;;;;1.23;0.82;;;;;;;18.75;66.28;96966.59;10558085;28;20034;-31
2022/10/26 09:46:23;;;;;;;2.42;1.58;;;;;;;18.80;66.83;96977.56;10564475;28;20030;-30
2022/10/26 09:51:26;;;;;;;1.58;0.60;;;;;;;18.82;66.61;96980.97;10557063;28;20049;-30
2022/10/26 09:56:29;;;;;;;0.85;0.50;;;;;;;18.84;66.44;96989.44;10555039;28;20035;-30
2022/10/26 10:01:32;;;;;;;0.80;0.55;;;;;;;18.77;65.49;97002.94;10560005;28;20036;-30
2022/10/26 10:06:32;;;;;;;0.50;0.50;;;;;;;18.76;65.77;97008.84;10556719;28;20031;-30
2022/10/26 10:11:53;;;;;;;1.00;0.60;;;;;;;18.77;65.99;97013.09;10557017;28;20031;-30
2022/10/26 10:17:02;;;;;;;2.10;0.90;;;;;;;18.76;66.04;97019.84;10554237;28;20043;-29
2022/10/26 10:22:15;;;;;;;1.63;0.80;;;;;;;18.77;66.24;97025.75;10558608;28;20552;-29
2022/10/26 10:27:17;;;;;;;0.93;0.65;;;;;;;18.76;66.42;97016.47;10563563;28;20039;-30
2022/10/26 10:32:22;;;;;;;1.92;0.73;;;;;;;18.75;66.27;97020.69;10561526;28;20023;-30
2022/10/26 10:37:22;;;;;;;1.23;0.80;;;;;;;18.75;66.31;97014.78;10558993;28;20031;-30
2022/10/26 10:42:26;;;;;;;3.43;1.10;;;;;;;18.76;66.29;97026.63;10556350;28;20039;-30
2022/10/26 10:47:32;;;;;;;0.98;0.60;;;;;;;18.74;66.13;97033.38;10568146;27;20031;-31
2022/10/26 10:52:34;;;;;;;1.17;0.65;;;;;;;18.68;66.65;97018.94;10575741;28;20023;-29
2022/10/26 10:57:51;;;;;;;1.58;0.68;;;;;;;18.84;67.30;97035.09;10568713;27;20051;-30
2022/10/26 11:03:20;;;;;;;1.10;0.77;;;;;;;18.84;66.43;97030.03;10566662;28;20468;-30
2022/10/26 11:08:54;;;;;;;1.38;0.60;;;;;;;18.77;65.49;97029.13;10578224;28;20032;-30
2022/10/26 11:14:03;;;;;;;1.80;0.90;;;;;;;18.78;65.56;97040.13;10557257;28;20390;-29
2022/10/26 11:19:24;;;;;;;0.90;0.63;;;;;;;18.78;65.96;97035.94;10578970;28;20147;-31
2022/10/26 11:24:41;;;;;;;3.63;1.95;;;;;;;18.78;66.43;97030.00;10561897;28;20051;-30
2022/10/26 11:29:50;;;;;;;;;;;;;;;18.77;66.45;97038.44;10568057;28;20081;-30
2022/10/26 11:34:54;;;;;;;2.88;1.77;;;;;;;18.76;66.37;97041.84;10568251;28;19925;-30
2022/10/26 11:40:20;;;;;;;3.10;2.10;;;;;;;18.73;66.50;97036.72;10565723;28;20040;-30
2022/10/26 11:45:31;;;;;;;7.53;3.15;;;;;;;18.79;66.27;97039.28;10576605;28;20040;-30
2022/10/26 11:50:40;;;;;;;7.28;2.42;;;;;;;18.75;66.23;97030.00;10570619;28;20034;-30
2022/10/26 11:55:44;;;;;;;6.57;2.20;;;;;;;18.77;65.89;97031.66;10567611;28;20042;-30
2022/10/26 12:00:52;;;;;;;8.25;2.50;;;;;;;18.85;65.96;97044.41;10557481;28;20120;-30
2022/10/26 12:05:53;;;;;;;8.80;3.05;;;;;;;18.89;65.86;97038.47;10565413;28;20110;-31
2022/10/26 12:11:12;;;;;;;4.90;1.80;;;;;;;18.84;65.15;97040.16;10568743;28;20110;-29
2022/10/26 12:16:23;;;;;;;8.45;1.60;;;;;;;18.79;65.03;97042.69;10565238;28;20496;-30
2022/10/26 12:21:28;;;;;;;7.22;2.28;;;;;;;18.77;64.89;97049.41;10565885;28;20035;-30
2022/10/26 12:26:37;;;;;;;5.57;2.92;;;;;;;18.79;65.33;97055.38;10559338;28;20044;-30
2022/10/26 12:31:37;;;;;;;8.80;3.22;;;;;;;18.79;65.20;97054.50;10567200;28;20027;-30
2022/10/26 12:36:54;;;;;;;8.10;3.20;;;;;;;18.78;65.54;97060.44;10561663;28;20036;-30
2022/10/26 12:41:57;;;;;;;9.13;3.03;;;;;;;18.77;65.20;97053.66;10556137;28;20028;-29
2022/10/26 12:46:58;;;;;;;12.30;3.10;;;;;;;18.78;65.28;97065.50;10559745;28;20036;-30
2022/10/26 12:51:58;;;;;;;16.20;4.53;;;;;;;18.73;65.29;97064.63;10569122;28;20024;-30
2022/10/26 12:57:17;;;;;;;8.20;2.83;;;;;;;18.79;65.26;97069.72;10564684;28;20294;-30
2022/10/26 13:02:32;;;;;;;10.50;3.35;;;;;;;18.80;66.92;97073.97;10562252;28;20039;-29
2022/10/26 13:07:37;;;;;;;10.88;2.88;;;;;;;18.89;67.32;97068.91;10564833;28;20111;-29
2022/10/26 13:12:41;;;;;;;6.30;2.47;;;;;;;18.92;67.15;97074.84;10567879;28;20078;-29
2022/10/26 13:17:41;;;;;;;5.00;1.85;;;;;;;18.87;65.71;97075.69;10562004;28;20038;-30
2022/10/26 13:22:46;;;;;;;7.10;2.63;;;;;;;18.79;65.25;97072.28;10551676;28;20023;-30
2022/10/26 13:28:01;;;;;;;5.22;1.80;;;;;;;18.76;65.18;97083.25;10565523;28;20528;-30
2022/10/26 13:33:06;;;;;;;9.38;1.90;;;;;;;18.73;65.39;97077.31;10561781;28;20042;-30
2022/10/26 13:38:11;;;;;;;12.23;2.72;;;;;;;18.79;65.39;97079.88;10554770;28;20168;-29
2022/10/26 13:43:20;;;;;;;13.63;2.70;;;;;;;18.79;65.39;97077.34;10558815;28;20035;-29
2022/10/26 13:48:41;;;;;;;11.73;1.90;;;;;;;18.79;65.16;97077.34;10560679;28;20019;-31
2022/10/26 13:53:57;;;;;;;9.57;2.63;;;;;;;18.79;65.31;97079.88;10557260;28;20078;-29
2022/10/26 13:59:09;;;;;;;9.50;2.13;;;;;;;18.79;65.09;97082.41;10560073;28;20040;-29
2022/10/26 14:04:26;;;;;;;8.55;2.47;;;;;;;18.75;65.46;97075.66;10556173;28;20156;-30
2022/10/26 14:09:28;;;;;;;4.60;2.08;;;;;;;18.85;67.61;97092.59;10554313;28;20035;-30
2022/10/26 14:14:35;;;;;;;8.18;2.30;;;;;;;18.91;68.00;97097.72;10557489;28;20042;-29
2022/10/26 14:19:38;;;;;;;5.15;2.30;;;;;;;18.95;67.89;97101.94;10566710;28;20036;-29
2022/10/26 14:24:39;;;;;;;2.50;1.00;;;;;;;18.91;65.14;97107.84;10558133;28;20063;-29
2022/10/26 14:29:40;;;;;;;1.42;0.77;;;;;;;18.85;64.81;97107.81;10558382;28;20111;-29
2022/10/26 14:34:40;;;;;;;2.03;1.03;;;;;;;18.83;64.67;97106.97;10560810;28;20036;-31
2022/10/26 14:39:44;;;;;;;1.53;0.83;;;;;;;18.79;64.76;97112.84;10565147;28;20039;-30
2022/10/26 14:44:44;;;;;;;3.33;1.42;;;;;;;18.79;64.79;97112.84;10555958;28;20110;-30
2022/10/26 14:49:45;;;;;;;2.72;0.98;;;;;;;18.80;64.71;97124.69;10556593;28;20401;-30
2022/10/26 14:54:57;;;;;;;2.00;1.00;;;;;;;18.79;64.88;97117.94;10563290;28;20036;-30
2022/10/26 15:00:23;;;;;;;2.70;1.20;;;;;;;18.78;64.80;97117.09;10555056;28;20129;-31
2022/10/26 15:05:33;;;;;;;2.05;1.05;;;;;;;18.79;64.81;97112.84;10560997;28;20035;-30
2022/10/26 15:10:36;;;;;;;2.05;1.00;;;;;;;18.77;64.83;97120.44;10560697;28;20067;-30
2022/10/26 15:15:36;;;;;;;6.40;2.28;;;;;;;18.85;67.80;97123.03;10563189;28;20546;-30
2022/10/26 15:20:38;;;;;;;3.15;1.75;;;;;;;18.93;68.41;97134.06;10558324;28;20074;-30
2022/10/26 15:25:47;;;;;;;5.97;1.83;;;;;;;18.95;68.06;97135.78;10557868;28;20096;-29
2022/10/26 15:31:05;;;;;;;2.67;1.23;;;;;;;18.88;65.17;97140.81;10555233;28;20396;-29
2022/10/26 15:36:15;;;;;;;3.22;0.90;;;;;;;18.89;64.69;97150.09;10565414;28;20073;-30
2022/10/26 15:41:22;;;;;;;1.92;0.90;;;;;;;18.80;64.82;97134.84;10568606;28;20455;-31
2022/10/26 15:46:23;;;;;;;;;;;;;;;18.84;64.54;97146.72;10565189;28;20337;-30
2022/10/26 15:51:24;;;;;;;2.10;1.00;;;;;;;18.81;64.84;97156.81;10563121;28;19998;-30
2022/10/26 15:56:25;;;;;;;3.40;1.10;;;;;;;18.80;64.91;97162.75;10565175;28;20072;-30
2022/10/26 16:01:27;;;;;;;2.35;1.20;;;;;;;18.81;64.75;97161.91;10562952;28;20031;-29
2022/10/26 16:06:30;;;;;;;3.35;1.00;;;;;;;18.79;64.63;97166.13;10568177;28;20035;-28
2022/10/26 16:11:31;;;;;;;1.30;0.85;;;;;;;18.80;64.63;97175.44;10558602;27;20501;-29
2022/10/26 16:16:32;;;;;;;2.38;1.08;;;;;;;18.80;64.78;97180.50;10553557;28;20035;-29
2022/10/26 16:21:32;;;;;;;7.38;2.60;;;;;;;18.83;65.83;97185.63;10553947;28;20043;-31
2022/10/26 16:26:32;;;;;;;9.70;2.27;;;;;;;18.94;67.80;97199.19;10566295;28;20043;-31
2022/10/26 16:31:33;;;;;;;7.83;2.47;;;;;;;18.96;67.63;97200.91;10565674;28;20093;-30
2022/10/26 16:36:33;;;;;;;3.10;1.87;;;;;;;18.93;66.57;97207.66;10559261;28;20281;-31
2022/10/26 16:41:34;;;;;;;3.70;1.30;;;;;;;18.91;64.97;97211.88;10567259;28;20799;-30
2022/10/26 16:46:34;;;;;;;1.48;1.00;;;;;;;18.87;64.73;97210.16;10564071;28;20039;-29
2022/10/26 16:51:34;;;;;;;1.93;0.90;;;;;;;18.85;64.59;97216.91;10553407;28;20486;-30
2022/10/26 16:56:35;;;;;;;2.43;0.90;;;;;;;18.85;64.68;97220.28;10561389;28;20103;-30
2022/10/26 17:01:35;;;;;;;3.35;1.10;;;;;;;18.83;64.65;97221.13;10561050;28;20374;-30
2022/10/26 17:06:35;;;;;;;6.80;1.63;;;;;;;18.83;64.87;97224.50;10565022;28;20044;-30
2022/10/26 17:11:36;;;;;;;2.67;1.47;;;;;;;18.82;64.63;97227.03;10564290;28;20054;-30
2022/10/26 17:16:36;;;;;;;2.20;0.90;;;;;;;18.81;64.56;97238.00;10571355;28;20513;-30
2022/10/26 17:21:37;;;;;;;11.03;1.67;;;;;;;18.81;65.46;97249.00;10563627;28;20496;-30
2022/10/26 17:26:37;;;;;;;2.38;0.85;;;;;;;18.83;64.82;97249.03;10562997;28;20342;-30
2022/10/26 17:31:38;;;;;;;3.10;1.70;;;;;;;18.94;68.19;97258.44;10565051;28;20026;-29
2022/10/26 17:36:38;;;;;;;7.90;2.22;;;;;;;19.01;68.10;97274.53;10556964;28;20293;-30
2022/10/26 17:41:39;;;;;;;8.87;2.60;;;;;;;18.99;67.19;97278.75;10556597;28;20028;-30
2022/10/26 17:46:39;;;;;;;4.30;1.50;;;;;;;18.94;65.33;97277.84;10563679;28;20059;-29
2022/10/26 17:51:39;;;;;;;4.03;1.43;;;;;;;18.87;65.88;97279.50;10559804;28;20281;-30
2022/10/26 17:56:40;;;;;;;3.87;1.60;;;;;;;18.84;64.88;97279.47;10553415;28;20044;-29
2022/10/26 18:01:41;;;;;;;2.33;1.23;;;;;;;18.88;65.17;97290.50;10558606;28;20097;-29
2022/10/26 18:06:42;;;;;;;2.60;1.00;;;;;;;18.86;64.88;97298.13;10556390;28;20043;-30
2022/10/26 18:11:42;;;;;;;1.92;1.08;;;;;;;18.86;64.81;97308.25;10553888;27;20027;-30
2022/10/26 18:16:43;;;;;;;3.38;0.90;;;;;;;18.86;64.85;97315.00;10554978;28;20035;-30
2022/10/26 18:21:43;;;;;;;4.22;1.27;;;;;;;18.85;64.73;97318.38;10553814;28;20039;-30
2022/10/26 18:26:43;;;;;;;4.43;1.53;;;;;;;18.85;64.88;97313.31;10556181;28;20040;-31
2022/10/26 18:31:44;;;;;;;3.97;1.87;;;;;;;18.85;64.87;97326.84;10559452;28;20041;-30
2022/10/26 18:36:45;;;;;;;6.85;1.77;;;;;;;18.96;68.27;97334.53;10552290;28;20028;-30
2022/10/26 18:41:45;;;;;;;5.87;2.20;;;;;;;19.00;67.99;97326.13;10550269;28;20050;-31
2022/10/26 18:46:50;;;;;;;4.78;2.10;;;;;;;18.83;67.25;97309.94;10552555;28;20055;-31
2022/10/26 18:51:51;;;;;;;4.18;1.65;;;;;;;18.93;66.79;97334.53;10530704;28;20069;-31
2022/10/26 18:56:51;;;;;;;6.70;1.63;;;;;;;18.90;66.16;97344.63;10552443;28;20492;-30
2022/10/26 19:01:51;;;;;;;4.17;1.60;;;;;;;18.88;65.97;97351.38;10553285;28;20032;-30
2022/10/26 19:06:52;;;;;;;6.43;1.88;;;;;;;18.87;65.60;97347.16;10550782;28;20114;-31
2022/10/26 19:11:52;;;;;;;3.23;2.00;;;;;;;18.86;66.05;97353.94;10564409;28;20434;-30
2022/10/26 19:16:53;;;;;;;3.80;1.37;;;;;;;18.85;65.35;97351.38;10573194;28;20092;-30
2022/10/26 19:21:53;;;;;;;5.00;1.53;;;;;;;18.86;65.38;97353.06;10566405;28;20301;-30
2022/10/26 19:26:54;;;;;;;3.47;1.30;;;;;;;18.86;66.06;97358.16;10567346;28;20031;-30
2022/10/26 19:31:55;;;;;;;3.75;1.30;;;;;;;18.85;65.20;97364.88;10565101;28;20420;-32
2022/10/26 19:36:55;;;;;;;3.10;1.90;;;;;;;18.84;65.58;97354.75;10561653;28;20119;-30
2022/10/26 19:41:55;;;;;;;6.10;1.90;;;;;;;18.91;67.48;97361.59;10554696;28;20070;-35
2022/10/26 19:46:56;;;;;;;4.43;1.63;;;;;;;18.98;67.41;97368.38;10570417;28;20334;-30
2022/10/26 19:51:56;;;;;;;4.00;1.57;;;;;;;18.97;66.98;97361.59;10566743;28;20032;-30
2022/10/26 19:56:57;;;;;;;2.35;1.50;;;;;;;18.93;65.48;97364.97;10572004;28;20044;-31
2022/10/26 20:01:59;;;;;;;6.57;1.07;;;;;;;18.91;65.15;97366.66;10568620;28;20498;-31
2022/10/26 20:06:59;;;;;;;1.20;0.80;;;;;;;18.88;65.09;97372.53;10566456;28;20312;-32
2022/10/26 20:11:59;;;;;;;2.33;1.13;;;;;;;18.87;65.14;97375.06;10567363;28;20054;-30
2022/10/26 20:17:00;;;;;;;3.97;1.23;;;;;;;18.85;65.12;97366.59;10572848;28;20036;-31
2022/10/26 20:22:01;;;;;;;3.35;1.30;;;;;;;18.84;64.95;97359.81;10565360;28;20036;-31
2022/10/26 20:27:01;;;;;;;3.30;1.13;;;;;;;18.83;64.95;97378.41;10568300;28;20061;-30
2022/10/26 20:32:01;;;;;;;3.15;1.42;;;;;;;18.83;65.13;97378.41;10566763;28;20038;-30
2022/10/26 20:37:02;;;;;;;2.10;1.00;;;;;;;18.82;65.08;97376.72;10563068;28;20489;-31
2022/10/26 20:42:04;;;;;;;1.65;1.00;;;;;;;18.81;65.00;97390.22;10562839;28;20532;-30
2022/10/26 20:47:04;;;;;;;2.20;1.55;;;;;;;18.87;67.81;97383.53;10563544;28;20074;-30
2022/10/26 20:52:16;;;;;;;2.30;1.38;;;;;;;18.95;67.96;97383.59;10561628;28;20588;-30
2022/10/26 20:57:21;;;;;;;4.18;1.92;;;;;;;18.98;67.72;97388.69;10564286;28;20614;-30
2022/10/26 21:02:22;;;;;;;2.03;1.25;;;;;;;18.93;67.14;97390.34;10560342;28;20046;-30
2022/10/26 21:07:22;;;;;;;3.63;1.20;;;;;;;18.90;66.96;97395.38;10565145;28;20473;-30
2022/10/26 21:12:23;;;;;;;2.05;1.10;;;;;;;18.88;65.71;97397.06;10564291;28;20131;-30
2022/10/26 21:17:23;;;;;;;3.03;1.20;;;;;;;18.86;66.36;97393.66;10570990;28;20088;-31
2022/10/26 21:22:23;;;;;;;3.67;1.23;;;;;;;18.85;65.42;97397.03;10562824;28;20032;-30
2022/10/26 21:27:24;;;;;;;3.60;1.20;;;;;;;18.85;66.12;97392.78;10565964;28;20032;-32
2022/10/26 21:32:24;;;;;;;4.40;1.30;;;;;;;18.83;65.24;97383.50;10563630;28;20076;-31
2022/10/26 21:37:25;;;;;;;2.40;1.20;;;;;;;18.81;65.14;97395.28;10556122;28;20637;-30
2022/10/26 21:42:26;;;;;;;3.10;1.65;;;;;;;18.82;65.08;97394.50;10560003;28;20321;-30
2022/10/26 21:47:26;;;;;;;1.93;1.00;;;;;;;18.81;64.94;97400.38;10561140;28;20024;-31
2022/10/26 21:52:27;;;;;;;3.92;1.55;;;;;;;18.82;66.47;97402.09;10558258;28;20039;-31
2022/10/26 21:57:27;;;;;;;1.40;1.05;;;;;;;18.91;67.76;97382.72;10560550;28;20035;-31
2022/10/26 22:02:28;;;;;;;3.07;1.20;;;;;;;18.96;67.48;97395.44;10560646;28;20409;-30
2022/10/26 22:07:28;;;;;;;3.47;1.10;;;;;;;18.91;66.37;97389.50;10563624;28;20043;-31
2022/10/26 22:12:28;;;;;;;2.07;1.10;;;;;;;18.89;66.60;97388.59;10560575;28;20027;-30
2022/10/26 22:17:29;;;;;;;2.07;0.80;;;;;;;18.87;65.63;97386.06;10560804;28;20267;-31
2022/10/26 22:22:29;;;;;;;3.17;1.30;;;;;;;18.85;65.67;97382.66;10560085;28;20029;-31
2022/10/26 22:27:30;;;;;;;1.63;1.17;;;;;;;18.83;64.97;97394.47;10560220;28;20027;-30
2022/10/26 22:32:30;;;;;;;1.75;0.90;;;;;;;18.83;66.40;97388.56;10562060;28;20285;-30
2022/10/26 22:37:30;;;;;;;1.80;1.10;;;;;;;18.82;64.97;97397.84;10551380;28;20027;-30
2022/10/26 22:42:31;;;;;;;1.07;0.80;;;;;;;18.80;64.88;97391.06;10558441;28;20039;-31
2022/10/26 22:47:31;;;;;;;2.00;0.70;;;;;;;18.80;64.95;97393.59;10560764;28;20024;-30
2022/10/26 22:52:33;;;;;;;1.50;1.00;;;;;;;18.79;64.95;97381.75;10563566;28;20024;-31
2022/10/26 22:57:33;;;;;;;1.55;0.98;;;;;;;18.78;64.54;97377.53;10559173;28;20047;-30
2022/10/26 23:02:34;;;;;;;1.90;1.17;;;;;;;18.89;67.70;97378.44;10558447;28;20027;-31
2022/10/26 23:07:34;;;;;;;2.53;0.93;;;;;;;18.92;67.54;97374.25;10554115;28;20391;-31
2022/10/26 23:12:34;;;;;;;1.20;0.80;;;;;;;18.91;66.35;97375.09;10558362;28;20052;-30
2022/10/26 23:17:35;;;;;;;2.20;0.97;;;;;;;18.88;66.58;97376.75;10559541;28;20695;-30
2022/10/26 23:22:35;;;;;;;1.20;0.85;;;;;;;18.87;66.56;97383.53;10551822;28;20024;-31
2022/10/26 23:27:36;;;;;;;1.75;1.17;;;;;;;18.83;65.20;97379.25;10558295;28;20084;-30
2022/10/26 23:32:36;;;;;;;2.80;1.27;;;;;;;18.83;65.04;97373.34;10565171;28;20397;-30